createdAt,value
2023-04-15T00:00:21.699Z,622.00
2023-04-15T00:00:51.707Z,621.00
2023-04-15T00:01:21.758Z,620.00
2023-04-15T00:01:51.809Z,620.00
2023-04-15T00:02:22.118Z,621.00
2023-04-15T00:02:51.990Z,622.00
2023-04-15T00:03:22.185Z,621.00
2023-04-15T00:03:52.171Z,622.00
2023-04-15T00:04:22.253Z,624.00
2023-04-15T00:04:52.261Z,623.00
2023-04-15T00:05:22.266Z,624.00
2023-04-15T00:05:52.313Z,624.00
2023-04-15T00:06:22.340Z,622.00
2023-04-15T00:06:52.349Z,634.00
2023-04-15T00:07:22.417Z,631.00
2023-04-15T00:07:52.434Z,628.00
2023-04-15T00:08:22.411Z,628.00
2023-04-15T00:08:52.493Z,629.00
2023-04-15T00:09:22.603Z,630.00
2023-04-15T00:09:52.697Z,627.00
2023-04-15T00:10:22.782Z,630.00
2023-04-15T00:10:52.856Z,629.00
2023-04-15T00:11:22.936Z,631.00
2023-04-15T00:11:53.029Z,630.00
2023-04-15T00:12:23.134Z,629.00
2023-04-15T00:12:53.215Z,628.00
2023-04-15T00:13:23.302Z,627.00
2023-04-15T00:13:53.377Z,625.00
2023-04-15T00:14:23.460Z,626.00
2023-04-15T00:14:53.577Z,626.00
2023-04-15T00:15:23.656Z,628.00
2023-04-15T00:15:53.754Z,626.00
2023-04-15T00:16:23.887Z,626.00
2023-04-15T00:16:54.030Z,626.00
2023-04-15T00:17:24.019Z,626.00
2023-04-15T00:18:24.093Z,626.00
2023-04-15T00:18:54.109Z,622.00
2023-04-15T00:19:24.095Z,625.00
2023-04-15T00:19:54.107Z,625.00
2023-04-15T00:20:24.111Z,627.00
2023-04-15T00:20:54.125Z,626.00
2023-04-15T00:21:24.137Z,623.00
2023-04-15T00:21:54.144Z,623.00
2023-04-15T00:22:24.169Z,621.00
2023-04-15T00:22:54.170Z,618.00
2023-04-15T00:23:24.204Z,620.00
2023-04-15T00:23:54.200Z,619.00
2023-04-15T00:24:24.243Z,618.00
2023-04-15T00:24:54.227Z,616.00
2023-04-15T00:25:24.254Z,618.00
2023-04-15T00:25:54.262Z,618.00
2023-04-15T00:26:24.279Z,615.00
2023-04-15T00:26:54.285Z,614.00
2023-04-15T00:27:24.298Z,616.00
2023-04-15T00:27:54.321Z,616.00
2023-04-15T00:28:24.317Z,618.00
2023-04-15T00:28:54.324Z,619.00
2023-04-15T00:29:24.329Z,621.00
2023-04-15T00:29:54.348Z,620.00
2023-04-15T00:30:24.346Z,618.00
2023-04-15T00:30:54.411Z,619.00
2023-04-15T00:31:24.589Z,624.00
2023-04-15T00:31:54.497Z,623.00
2023-04-15T00:32:24.648Z,621.00
2023-04-15T00:32:54.583Z,621.00
2023-04-15T00:33:24.641Z,619.00
2023-04-15T00:33:54.648Z,619.00
2023-04-15T00:34:24.656Z,618.00
2023-04-15T00:34:54.670Z,618.00
2023-04-15T00:35:24.682Z,620.00
2023-04-15T00:35:54.696Z,619.00
2023-04-15T00:36:24.715Z,617.00
2023-04-15T00:36:54.778Z,617.00
2023-04-15T00:37:24.775Z,616.00
2023-04-15T00:37:54.782Z,618.00
2023-04-15T00:38:24.804Z,613.00
2023-04-15T00:38:54.797Z,615.00
2023-04-15T00:39:24.806Z,616.00
2023-04-15T00:39:54.814Z,614.00
2023-04-15T00:40:24.862Z,614.00
2023-04-15T00:40:54.866Z,611.00
2023-04-15T00:41:24.863Z,612.00
2023-04-15T00:41:54.880Z,613.00
2023-04-15T00:42:24.885Z,612.00
2023-04-15T00:42:54.894Z,615.00
2023-04-15T00:43:24.906Z,613.00
2023-04-15T00:43:54.928Z,612.00
2023-04-15T00:44:24.967Z,608.00
2023-04-15T00:44:54.972Z,606.00
2023-04-15T00:45:24.965Z,607.00
2023-04-15T00:45:55.001Z,609.00
2023-04-15T00:46:25.084Z,611.00
2023-04-15T00:46:55.115Z,611.00
2023-04-15T00:47:25.142Z,611.00
2023-04-15T00:47:55.213Z,613.00
2023-04-15T00:48:25.210Z,610.00
2023-04-15T00:48:55.264Z,607.00
2023-04-15T00:49:25.266Z,609.00
2023-04-15T00:49:55.272Z,607.00
2023-04-15T00:50:25.278Z,608.00
2023-04-15T00:50:55.276Z,609.00
2023-04-15T00:51:25.302Z,606.00
2023-04-15T00:51:55.300Z,610.00
2023-04-15T00:52:25.333Z,609.00
2023-04-15T00:52:55.332Z,609.00
2023-04-15T00:53:25.372Z,611.00
2023-04-15T00:53:55.375Z,609.00
2023-04-15T00:54:25.379Z,608.00
2023-04-15T00:54:55.411Z,607.00
2023-04-15T00:55:25.430Z,608.00
2023-04-15T00:55:55.431Z,607.00
2023-04-15T00:56:25.444Z,608.00
2023-04-15T00:56:55.440Z,608.00
2023-04-15T00:57:25.456Z,608.00
2023-04-15T00:57:55.460Z,607.00
2023-04-15T00:58:25.467Z,603.00
2023-04-15T00:58:55.480Z,604.00
2023-04-15T00:59:25.504Z,603.00
2023-04-15T00:59:55.507Z,602.00
2023-04-15T01:00:25.510Z,603.00
2023-04-15T01:00:55.540Z,602.00
2023-04-15T01:01:25.552Z,601.00
2023-04-15T01:01:55.617Z,606.00
2023-04-15T01:02:25.772Z,609.00
2023-04-15T01:02:55.831Z,610.00
2023-04-15T01:03:25.820Z,609.00
2023-04-15T01:03:55.784Z,609.00
2023-04-15T01:04:25.772Z,607.00
2023-04-15T01:04:55.702Z,610.00
2023-04-15T01:05:25.707Z,608.00
2023-04-15T01:05:55.723Z,610.00
2023-04-15T01:06:25.713Z,610.00
2023-04-15T01:06:55.726Z,610.00
2023-04-15T01:07:25.746Z,610.00
2023-04-15T01:07:55.750Z,610.00
2023-04-15T01:08:25.838Z,614.00
2023-04-15T01:08:55.917Z,612.00
2023-04-15T01:09:26.013Z,612.00
2023-04-15T01:09:56.106Z,610.00
2023-04-15T01:10:26.185Z,611.00
2023-04-15T01:10:56.309Z,609.00
2023-04-15T01:11:26.268Z,608.00
2023-04-15T01:11:56.353Z,608.00
2023-04-15T01:12:26.463Z,611.00
2023-04-15T01:12:56.531Z,606.00
2023-04-15T01:13:26.623Z,605.00
2023-04-15T01:13:56.712Z,607.00
2023-04-15T01:14:26.803Z,609.00
2023-04-15T01:14:56.917Z,609.00
2023-04-15T01:15:27.010Z,609.00
2023-04-15T01:15:57.113Z,606.00
2023-04-15T01:16:27.129Z,606.00
2023-04-15T01:16:57.103Z,605.00
2023-04-15T01:17:27.225Z,605.00
2023-04-15T01:17:57.213Z,603.00
2023-04-15T01:18:27.233Z,603.00
2023-04-15T01:18:57.201Z,604.00
2023-04-15T01:19:27.248Z,602.00
2023-04-15T01:19:57.264Z,601.00
2023-04-15T01:20:27.278Z,600.00
2023-04-15T01:20:57.295Z,599.00
2023-04-15T01:21:27.308Z,597.00
2023-04-15T01:21:57.309Z,597.00
2023-04-15T01:22:27.316Z,598.00
2023-04-15T01:22:57.307Z,599.00
2023-04-15T01:23:27.332Z,604.00
2023-04-15T01:23:57.339Z,595.00
2023-04-15T01:24:27.355Z,596.00
2023-04-15T01:24:57.362Z,598.00
2023-04-15T01:25:27.366Z,601.00
2023-04-15T01:25:57.384Z,602.00
2023-04-15T01:26:27.509Z,601.00
2023-04-15T01:26:57.506Z,599.00
2023-04-15T01:27:27.516Z,598.00
2023-04-15T01:27:57.522Z,602.00
2023-04-15T01:28:27.544Z,602.00
2023-04-15T01:28:57.735Z,601.00
2023-04-15T01:29:27.571Z,600.00
2023-04-15T01:29:57.598Z,600.00
2023-04-15T01:30:27.624Z,601.00
2023-04-15T01:30:57.613Z,600.00
2023-04-15T01:31:27.665Z,603.00
2023-04-15T01:31:57.745Z,601.00
2023-04-15T01:32:27.801Z,603.00
2023-04-15T01:32:57.849Z,602.00
2023-04-15T01:33:27.853Z,600.00
2023-04-15T01:33:57.883Z,602.00
2023-04-15T01:34:27.860Z,604.00
2023-04-15T01:35:28.010Z,604.00
2023-04-15T01:35:58.001Z,601.00
2023-04-15T01:36:28.004Z,599.00
2023-04-15T01:36:58.009Z,600.00
2023-04-15T01:37:28.015Z,600.00
2023-04-15T01:37:58.032Z,601.00
2023-04-15T01:38:28.027Z,597.00
2023-04-15T01:38:58.217Z,594.00
2023-04-15T01:39:28.095Z,595.00
2023-04-15T01:39:58.100Z,591.00
2023-04-15T01:40:28.117Z,592.00
2023-04-15T01:40:58.142Z,591.00
2023-04-15T01:41:28.175Z,590.00
2023-04-15T01:41:58.186Z,592.00
2023-04-15T01:42:28.222Z,593.00
2023-04-15T01:42:58.214Z,591.00
2023-04-15T01:43:28.286Z,592.00
2023-04-15T01:43:58.262Z,593.00
2023-04-15T01:44:28.300Z,593.00
2023-04-15T01:44:58.293Z,590.00
2023-04-15T01:45:28.331Z,599.00
2023-04-15T01:45:58.333Z,598.00
2023-04-15T01:46:28.409Z,595.00
2023-04-15T01:46:58.629Z,595.00
2023-04-15T01:47:28.519Z,597.00
2023-04-15T01:47:58.582Z,596.00
2023-04-15T01:48:28.666Z,597.00
2023-04-15T01:48:58.894Z,597.00
2023-04-15T01:49:28.713Z,596.00
2023-04-15T01:49:58.696Z,596.00
2023-04-15T01:50:58.705Z,596.00
2023-04-15T01:51:28.727Z,597.00
2023-04-15T01:51:58.742Z,595.00
2023-04-15T01:52:28.770Z,593.00
2023-04-15T01:52:58.795Z,595.00
2023-04-15T01:53:28.773Z,597.00
2023-04-15T01:53:58.781Z,593.00
2023-04-15T01:54:28.806Z,594.00
2023-04-15T01:54:58.807Z,593.00
2023-04-15T01:55:28.839Z,590.00
2023-04-15T01:55:58.859Z,592.00
2023-04-15T01:56:28.881Z,591.00
2023-04-15T01:56:58.892Z,597.00
2023-04-15T01:57:28.892Z,598.00
2023-04-15T01:57:58.929Z,599.00
2023-04-15T01:58:29.046Z,596.00
2023-04-15T01:58:59.295Z,593.00
2023-04-15T01:59:29.130Z,590.00
2023-04-15T01:59:59.136Z,599.00
2023-04-15T02:00:29.126Z,595.00
2023-04-15T02:00:59.154Z,603.00
2023-04-15T02:01:29.325Z,595.00
2023-04-15T02:01:59.212Z,591.00
2023-04-15T02:02:29.304Z,592.00
2023-04-15T02:02:59.283Z,590.00
2023-04-15T02:03:29.477Z,588.00
2023-04-15T02:03:59.482Z,588.00
2023-04-15T02:04:29.505Z,593.00
2023-04-15T02:04:59.581Z,590.00
2023-04-15T02:05:29.560Z,594.00
2023-04-15T02:05:59.569Z,598.00
2023-04-15T02:06:29.577Z,597.00
2023-04-15T02:06:59.585Z,598.00
2023-04-15T02:07:29.588Z,600.00
2023-04-15T02:07:59.590Z,595.00
2023-04-15T02:08:29.715Z,599.00
2023-04-15T02:09:00.263Z,597.00
2023-04-15T02:09:29.801Z,600.00
2023-04-15T02:09:59.876Z,599.00
2023-04-15T02:10:30.009Z,596.00
2023-04-15T02:10:59.967Z,597.00
2023-04-15T02:12:00.002Z,595.00
2023-04-15T02:12:30.097Z,591.00
2023-04-15T02:13:00.186Z,596.00
2023-04-15T02:13:30.260Z,593.00
2023-04-15T02:14:00.355Z,591.00
2023-04-15T02:14:30.429Z,594.00
2023-04-15T02:15:00.513Z,593.00
2023-04-15T02:15:30.624Z,590.00
2023-04-15T02:16:00.700Z,589.00
2023-04-15T02:16:30.811Z,588.00
2023-04-15T02:17:00.874Z,588.00
2023-04-15T02:17:30.999Z,589.00
2023-04-15T02:18:01.030Z,588.00
2023-04-15T02:18:30.983Z,589.00
2023-04-15T02:19:01.458Z,590.00
2023-04-15T02:19:31.064Z,589.00
2023-04-15T02:20:01.070Z,590.00
2023-04-15T02:20:31.130Z,591.00
2023-04-15T02:21:01.113Z,589.00
2023-04-15T02:21:31.119Z,588.00
2023-04-15T02:22:01.175Z,588.00
2023-04-15T02:22:31.152Z,588.00
2023-04-15T02:23:01.173Z,588.00
2023-04-15T02:23:31.192Z,589.00
2023-04-15T02:24:01.235Z,588.00
2023-04-15T02:24:31.259Z,584.00
2023-04-15T02:25:01.254Z,583.00
2023-04-15T02:25:31.271Z,583.00
2023-04-15T02:26:01.339Z,587.00
2023-04-15T02:26:31.330Z,588.00
2023-04-15T02:27:01.342Z,588.00
2023-04-15T02:27:31.352Z,587.00
2023-04-15T02:28:01.392Z,591.00
2023-04-15T02:28:31.390Z,594.00
2023-04-15T02:29:01.567Z,595.00
2023-04-15T02:29:31.418Z,593.00
2023-04-15T02:30:01.443Z,592.00
2023-04-15T02:30:31.440Z,586.00
2023-04-15T02:31:01.442Z,593.00
2023-04-15T02:31:31.493Z,592.00
2023-04-15T02:32:01.551Z,589.00
2023-04-15T02:32:31.558Z,590.00
2023-04-15T02:33:01.641Z,586.00
2023-04-15T02:33:31.635Z,586.00
2023-04-15T02:34:01.627Z,587.00
2023-04-15T02:34:31.642Z,587.00
2023-04-15T02:35:01.634Z,588.00
2023-04-15T02:35:31.636Z,586.00
2023-04-15T02:36:01.679Z,583.00
2023-04-15T02:36:31.661Z,582.00
2023-04-15T02:37:01.741Z,585.00
2023-04-15T02:37:31.716Z,584.00
2023-04-15T02:38:01.725Z,588.00
2023-04-15T02:38:31.727Z,586.00
2023-04-15T02:39:02.040Z,585.00
2023-04-15T02:39:31.749Z,586.00
2023-04-15T02:40:01.768Z,585.00
2023-04-15T02:40:31.778Z,583.00
2023-04-15T02:41:01.775Z,584.00
2023-04-15T02:41:31.787Z,583.00
2023-04-15T02:42:01.812Z,584.00
2023-04-15T02:42:31.809Z,585.00
2023-04-15T02:43:01.861Z,585.00
2023-04-15T02:43:31.901Z,583.00
2023-04-15T02:44:01.908Z,583.00
2023-04-15T02:44:31.913Z,587.00
2023-04-15T02:45:01.918Z,587.00
2023-04-15T02:45:31.921Z,584.00
2023-04-15T02:46:01.954Z,583.00
2023-04-15T02:46:32.007Z,585.00
2023-04-15T02:47:01.971Z,582.00
2023-04-15T02:48:02.041Z,581.00
2023-04-15T02:48:32.103Z,580.00
2023-04-15T02:49:02.389Z,576.00
2023-04-15T02:49:32.199Z,580.00
2023-04-15T02:50:02.226Z,580.00
2023-04-15T02:50:32.214Z,580.00
2023-04-15T02:51:02.210Z,581.00
2023-04-15T02:51:32.245Z,584.00
2023-04-15T02:52:02.283Z,586.00
2023-04-15T02:52:32.269Z,586.00
2023-04-15T02:53:02.279Z,585.00
2023-04-15T02:53:32.297Z,585.00
2023-04-15T02:54:02.296Z,586.00
2023-04-15T02:54:32.296Z,586.00
2023-04-15T02:55:02.311Z,584.00
2023-04-15T02:55:32.314Z,584.00
2023-04-15T02:56:32.406Z,580.00
2023-04-15T02:57:02.421Z,583.00
2023-04-15T02:57:32.427Z,580.00
2023-04-15T02:58:02.444Z,587.00
2023-04-15T02:58:32.437Z,582.00
2023-04-15T02:59:02.623Z,579.00
2023-04-15T02:59:32.515Z,580.00
2023-04-15T03:00:02.528Z,580.00
2023-04-15T03:00:32.526Z,580.00
2023-04-15T03:01:02.564Z,585.00
2023-04-15T03:01:32.612Z,587.00
2023-04-15T03:02:02.686Z,584.00
2023-04-15T03:02:32.817Z,582.00
2023-04-15T03:03:02.933Z,582.00
2023-04-15T03:03:33.012Z,584.00
2023-04-15T03:04:03.061Z,583.00
2023-04-15T03:04:32.946Z,584.00
2023-04-15T03:05:03.042Z,584.00
2023-04-15T03:05:33.061Z,583.00
2023-04-15T03:06:03.074Z,583.00
2023-04-15T03:06:33.094Z,579.00
2023-04-15T03:07:03.123Z,580.00
2023-04-15T03:07:33.129Z,577.00
2023-04-15T03:08:03.135Z,577.00
2023-04-15T03:08:33.228Z,575.00
2023-04-15T03:09:03.423Z,574.00
2023-04-15T03:09:33.436Z,574.00
2023-04-15T03:10:03.510Z,575.00
2023-04-15T03:10:33.595Z,575.00
2023-04-15T03:11:03.707Z,575.00
2023-04-15T03:11:35.451Z,575.00
2023-04-15T03:12:03.879Z,576.00
2023-04-15T03:12:33.951Z,577.00
2023-04-15T03:13:03.988Z,583.00
2023-04-15T03:13:34.063Z,577.00
2023-04-15T03:14:04.162Z,577.00
2023-04-15T03:14:34.247Z,577.00
2023-04-15T03:15:04.331Z,580.00
2023-04-15T03:15:34.434Z,577.00
2023-04-15T03:16:04.430Z,576.00
2023-04-15T03:16:34.547Z,577.00
2023-04-15T03:17:04.607Z,576.00
2023-04-15T03:17:34.705Z,578.00
2023-04-15T03:18:04.693Z,578.00
2023-04-15T03:18:34.698Z,579.00
2023-04-15T03:19:04.690Z,580.00
2023-04-15T03:19:34.702Z,581.00
2023-04-15T03:20:04.720Z,579.00
2023-04-15T03:20:34.795Z,582.00
2023-04-15T03:21:04.788Z,578.00
2023-04-15T03:21:34.820Z,583.00
2023-04-15T03:22:04.856Z,583.00
2023-04-15T03:22:34.843Z,582.00
2023-04-15T03:23:34.940Z,582.00
2023-04-15T03:24:04.943Z,586.00
2023-04-15T03:24:34.957Z,578.00
2023-04-15T03:25:04.953Z,575.00
2023-04-15T03:25:35.000Z,575.00
2023-04-15T03:26:05.010Z,575.00
2023-04-15T03:26:35.015Z,568.00
2023-04-15T03:27:05.053Z,574.00
2023-04-15T03:27:35.055Z,572.00
2023-04-15T03:28:05.061Z,570.00
2023-04-15T03:28:35.069Z,574.00
2023-04-15T03:29:05.071Z,573.00
2023-04-15T03:29:35.092Z,573.00
2023-04-15T03:30:05.092Z,576.00
2023-04-15T03:30:35.115Z,574.00
2023-04-15T03:31:05.178Z,575.00
2023-04-15T03:31:35.340Z,577.00
2023-04-15T03:32:05.253Z,570.00
2023-04-15T03:32:35.303Z,568.00
2023-04-15T03:33:05.315Z,571.00
2023-04-15T03:33:35.322Z,572.00
2023-04-15T03:34:05.333Z,569.00
2023-04-15T03:34:35.383Z,570.00
2023-04-15T03:35:05.386Z,569.00
2023-04-15T03:35:35.371Z,569.00
2023-04-15T03:36:05.389Z,569.00
2023-04-15T03:36:35.393Z,568.00
2023-04-15T03:37:05.397Z,571.00
2023-04-15T03:37:35.425Z,571.00
2023-04-15T03:38:05.404Z,573.00
2023-04-15T03:39:05.482Z,573.00
2023-04-15T03:39:35.502Z,572.00
2023-04-15T03:40:05.507Z,571.00
2023-04-15T03:40:35.516Z,569.00
2023-04-15T03:41:05.526Z,569.00
2023-04-15T03:41:35.581Z,570.00
2023-04-15T03:42:05.576Z,571.00
2023-04-15T03:42:35.570Z,571.00
2023-04-15T03:43:35.652Z,572.00
2023-04-15T03:44:05.689Z,573.00
2023-04-15T03:44:35.686Z,574.00
2023-04-15T03:45:05.698Z,574.00
2023-04-15T03:45:35.703Z,574.00
2023-04-15T03:46:05.749Z,574.00
2023-04-15T03:46:35.843Z,575.00
2023-04-15T03:47:05.869Z,574.00
2023-04-15T03:47:35.885Z,576.00
2023-04-15T03:48:16.447Z,572.00
2023-04-15T03:48:35.988Z,571.00
2023-04-15T03:49:06.006Z,572.00
2023-04-15T03:49:36.021Z,573.00
2023-04-15T03:50:06.032Z,572.00
2023-04-15T03:50:36.042Z,569.00
2023-04-15T03:51:06.048Z,566.00
2023-04-15T03:51:36.051Z,565.00
2023-04-15T03:52:06.054Z,567.00
2023-04-15T03:52:36.100Z,565.00
2023-04-15T03:53:06.118Z,564.00
2023-04-15T03:53:36.093Z,566.00
2023-04-15T03:54:36.195Z,566.00
2023-04-15T03:55:06.250Z,564.00
2023-04-15T03:55:36.236Z,565.00
2023-04-15T03:56:06.245Z,565.00
2023-04-15T03:56:36.256Z,563.00
2023-04-15T03:57:06.260Z,563.00
2023-04-15T03:57:36.263Z,564.00
2023-04-15T03:58:06.271Z,564.00
2023-04-15T03:58:36.277Z,565.00
2023-04-15T03:59:06.278Z,568.00
2023-04-15T03:59:36.293Z,566.00
2023-04-15T04:00:06.297Z,564.00
2023-04-15T04:00:36.303Z,566.00
2023-04-15T04:01:06.338Z,565.00
2023-04-15T04:01:36.394Z,564.00
2023-04-15T04:02:06.417Z,562.00
2023-04-15T04:02:36.412Z,562.00
2023-04-15T04:03:06.590Z,563.00
2023-04-15T04:03:36.508Z,564.00
2023-04-15T04:04:06.475Z,562.00
2023-04-15T04:04:36.540Z,565.00
2023-04-15T04:05:06.620Z,563.00
2023-04-15T04:05:36.613Z,562.00
2023-04-15T04:06:06.618Z,560.00
2023-04-15T04:06:36.695Z,561.00
2023-04-15T04:07:06.682Z,559.00
2023-04-15T04:07:36.689Z,557.00
2023-04-15T04:08:06.711Z,559.00
2023-04-15T04:08:36.830Z,560.00
2023-04-15T04:09:06.899Z,560.00
2023-04-15T04:09:36.986Z,561.00
2023-04-15T04:10:07.071Z,562.00
2023-04-15T04:10:37.195Z,562.00
2023-04-15T04:11:07.254Z,565.00
2023-04-15T04:11:37.343Z,558.00
2023-04-15T04:12:07.443Z,561.00
2023-04-15T04:12:37.543Z,560.00
2023-04-15T04:13:07.620Z,560.00
2023-04-15T04:13:37.692Z,566.00
2023-04-15T04:14:07.770Z,564.00
2023-04-15T04:14:37.887Z,567.00
2023-04-15T04:15:07.963Z,562.00
2023-04-15T04:15:38.082Z,563.00
2023-04-15T04:16:08.367Z,566.00
2023-04-15T04:16:38.238Z,563.00
2023-04-15T04:17:08.417Z,563.00
2023-04-15T04:17:38.466Z,565.00
2023-04-15T04:18:08.459Z,565.00
2023-04-15T04:18:38.484Z,566.00
2023-04-15T04:19:08.472Z,565.00
2023-04-15T04:19:38.482Z,563.00
2023-04-15T04:20:08.488Z,566.00
2023-04-15T04:20:38.496Z,566.00
2023-04-15T04:21:08.503Z,565.00
2023-04-15T04:21:38.547Z,566.00
2023-04-15T04:22:08.540Z,566.00
2023-04-15T04:22:38.546Z,565.00
2023-04-15T04:23:08.575Z,563.00
2023-04-15T04:23:38.604Z,565.00
2023-04-15T04:24:08.629Z,561.00
2023-04-15T04:24:38.617Z,562.00
2023-04-15T04:25:38.719Z,559.00
2023-04-15T04:26:08.755Z,557.00
2023-04-15T04:26:38.776Z,556.00
2023-04-15T04:27:08.793Z,558.00
2023-04-15T04:27:38.794Z,559.00
2023-04-15T04:28:08.806Z,557.00
2023-04-15T04:28:38.810Z,556.00
2023-04-15T04:29:08.824Z,554.00
2023-04-15T04:29:38.855Z,559.00
2023-04-15T04:30:08.837Z,557.00
2023-04-15T04:30:38.841Z,561.00
2023-04-15T04:31:08.855Z,562.00
2023-04-15T04:31:38.978Z,561.00
2023-04-15T04:32:09.080Z,558.00
2023-04-15T04:32:39.090Z,563.00
2023-04-15T04:33:09.099Z,562.00
2023-04-15T04:33:39.097Z,564.00
2023-04-15T04:34:09.097Z,568.00
2023-04-15T04:34:39.114Z,567.00
2023-04-15T04:35:09.126Z,568.00
2023-04-15T04:35:39.430Z,568.00
2023-04-15T04:36:09.198Z,569.00
2023-04-15T04:36:39.222Z,570.00
2023-04-15T04:37:09.216Z,570.00
2023-04-15T04:37:39.229Z,569.00
2023-04-15T04:38:09.266Z,568.00
2023-04-15T04:38:39.324Z,566.00
2023-04-15T04:39:09.306Z,564.00
2023-04-15T04:39:39.326Z,565.00
2023-04-15T04:40:09.350Z,566.00
2023-04-15T04:40:39.375Z,567.00
2023-04-15T04:41:09.442Z,570.00
2023-04-15T04:41:39.440Z,567.00
2023-04-15T04:42:09.440Z,568.00
2023-04-15T04:42:40.262Z,571.00
2023-04-15T04:43:09.509Z,572.00
2023-04-15T04:43:39.525Z,568.00
2023-04-15T04:44:09.534Z,571.00
2023-04-15T04:44:39.550Z,571.00
2023-04-15T04:45:09.563Z,568.00
2023-04-15T04:45:39.621Z,566.00
2023-04-15T04:46:09.629Z,565.00
2023-04-15T04:46:39.648Z,566.00
2023-04-15T04:47:09.673Z,567.00
2023-04-15T04:47:39.712Z,571.00
2023-04-15T04:48:09.746Z,572.00
2023-04-15T04:48:40.389Z,573.00
2023-04-15T04:49:09.811Z,572.00
2023-04-15T04:50:09.925Z,573.00
2023-04-15T04:50:39.945Z,577.00
2023-04-15T04:51:09.953Z,577.00
2023-04-15T04:51:39.981Z,574.00
2023-04-15T04:52:09.969Z,574.00
2023-04-15T04:52:39.980Z,573.00
2023-04-15T04:53:09.983Z,571.00
2023-04-15T04:53:39.992Z,565.00
2023-04-15T04:54:09.991Z,565.00
2023-04-15T04:54:40.000Z,562.00
2023-04-15T04:55:10.065Z,563.00
2023-04-15T04:55:40.102Z,563.00
2023-04-15T04:56:10.098Z,563.00
2023-04-15T04:56:40.147Z,563.00
2023-04-15T04:57:10.170Z,560.00
2023-04-15T04:57:40.178Z,559.00
2023-04-15T04:58:10.220Z,558.00
2023-04-15T04:58:40.215Z,557.00
2023-04-15T04:59:40.304Z,561.00
2023-04-15T05:00:10.329Z,558.00
2023-04-15T05:00:40.370Z,558.00
2023-04-15T05:01:10.550Z,558.00
2023-04-15T05:01:40.474Z,556.00
2023-04-15T05:02:10.499Z,556.00
2023-04-15T05:02:40.610Z,555.00
2023-04-15T05:03:10.689Z,552.00
2023-04-15T05:03:40.536Z,554.00
2023-04-15T05:04:10.684Z,553.00
2023-04-15T05:04:40.614Z,555.00
2023-04-15T05:05:10.629Z,552.00
2023-04-15T05:05:40.666Z,555.00
2023-04-15T05:06:10.679Z,551.00
2023-04-15T05:06:40.676Z,553.00
2023-04-15T05:07:10.714Z,552.00
2023-04-15T05:07:40.740Z,553.00
2023-04-15T05:08:10.729Z,553.00
2023-04-15T05:08:40.816Z,554.00
2023-04-15T05:09:10.916Z,553.00
2023-04-15T05:09:41.009Z,554.00
2023-04-15T05:10:11.106Z,551.00
2023-04-15T05:10:41.259Z,553.00
2023-04-15T05:11:11.211Z,559.00
2023-04-15T05:11:41.305Z,557.00
2023-04-15T05:12:11.372Z,555.00
2023-04-15T05:12:41.485Z,555.00
2023-04-15T05:13:11.563Z,556.00
2023-04-15T05:13:41.666Z,557.00
2023-04-15T05:14:11.741Z,558.00
2023-04-15T05:14:41.815Z,560.00
2023-04-15T05:15:11.899Z,558.00
2023-04-15T05:15:42.025Z,558.00
2023-04-15T05:16:12.125Z,560.00
2023-04-15T05:16:42.097Z,559.00
2023-04-15T05:17:12.176Z,557.00
2023-04-15T05:17:42.351Z,556.00
2023-04-15T05:18:12.337Z,553.00
2023-04-15T05:18:42.353Z,553.00
2023-04-15T05:19:12.344Z,550.00
2023-04-15T05:19:42.358Z,551.00
2023-04-15T05:20:12.366Z,550.00
2023-04-15T05:20:42.375Z,553.00
2023-04-15T05:21:12.376Z,553.00
2023-04-15T05:21:42.401Z,552.00
2023-04-15T05:22:12.400Z,553.00
2023-04-15T05:22:42.439Z,553.00
2023-04-15T05:23:12.410Z,550.00
2023-04-15T05:23:42.426Z,549.00
2023-04-15T05:24:12.420Z,552.00
2023-04-15T05:24:42.467Z,552.00
2023-04-15T05:25:12.462Z,553.00
2023-04-15T05:25:42.546Z,553.00
2023-04-15T05:26:12.565Z,553.00
2023-04-15T05:26:42.968Z,556.00
2023-04-15T05:27:12.561Z,553.00
2023-04-15T05:27:42.577Z,552.00
2023-04-15T05:28:12.592Z,553.00
2023-04-15T05:28:42.612Z,551.00
2023-04-15T05:29:12.613Z,552.00
2023-04-15T05:30:13.674Z,547.00
2023-04-15T05:30:42.712Z,545.00
2023-04-15T05:31:12.739Z,545.00
2023-04-15T05:31:42.764Z,544.00
2023-04-15T05:32:12.840Z,546.00
2023-04-15T05:32:42.854Z,549.00
2023-04-15T05:33:12.862Z,548.00
2023-04-15T05:33:42.913Z,548.00
2023-04-15T05:34:12.902Z,546.00
2023-04-15T05:34:42.977Z,549.00
2023-04-15T05:35:13.822Z,553.00
2023-04-15T05:35:43.012Z,550.00
2023-04-15T05:36:43.133Z,553.00
2023-04-15T05:37:13.178Z,552.00
2023-04-15T05:37:43.192Z,549.00
2023-04-15T05:38:13.207Z,551.00
2023-04-15T05:38:43.204Z,551.00
2023-04-15T05:39:13.257Z,544.00
2023-04-15T05:39:43.260Z,546.00
2023-04-15T05:40:13.284Z,544.00
2023-04-15T05:40:43.296Z,543.00
2023-04-15T05:41:13.304Z,547.00
2023-04-15T05:41:43.343Z,547.00
2023-04-15T05:42:13.327Z,550.00
2023-04-15T05:43:13.339Z,551.00
2023-04-15T05:43:43.374Z,553.00
2023-04-15T05:44:13.376Z,553.00
2023-04-15T05:44:43.377Z,552.00
2023-04-15T05:45:13.395Z,550.00
2023-04-15T05:45:43.410Z,551.00
2023-04-15T05:46:13.438Z,552.00
2023-04-15T05:46:43.533Z,553.00
2023-04-15T05:47:13.475Z,549.00
2023-04-15T05:47:43.507Z,551.00
2023-04-15T05:48:13.522Z,552.00
2023-04-15T05:48:43.526Z,554.00
2023-04-15T05:49:13.541Z,550.00
2023-04-15T05:49:43.573Z,552.00
2023-04-15T05:50:13.567Z,551.00
2023-04-15T05:50:43.637Z,561.00
2023-04-15T05:51:13.638Z,553.00
2023-04-15T05:51:43.658Z,555.00
2023-04-15T05:52:13.704Z,552.00
2023-04-15T05:52:43.696Z,551.00
2023-04-15T05:53:13.711Z,550.00
2023-04-15T05:53:43.711Z,553.00
2023-04-15T05:54:13.745Z,555.00
2023-04-15T05:54:43.754Z,555.00
2023-04-15T05:55:13.755Z,556.00
2023-04-15T05:55:43.772Z,556.00
2023-04-15T05:56:13.790Z,557.00
2023-04-15T05:56:43.792Z,556.00
2023-04-15T05:57:13.830Z,556.00
2023-04-15T05:57:43.852Z,557.00
2023-04-15T05:58:13.840Z,558.00
2023-04-15T05:58:43.908Z,558.00
2023-04-15T05:59:13.913Z,558.00
2023-04-15T05:59:43.987Z,558.00
2023-04-15T06:00:13.990Z,553.00
2023-04-15T06:00:44.013Z,551.00
2023-04-15T06:01:14.018Z,551.00
2023-04-15T06:01:44.020Z,549.00
2023-04-15T06:02:14.086Z,549.00
2023-04-15T06:02:44.178Z,548.00
2023-04-15T06:03:14.253Z,548.00
2023-04-15T06:03:44.298Z,547.00
2023-04-15T06:04:44.373Z,548.00
2023-04-15T06:05:14.365Z,546.00
2023-04-15T06:05:44.389Z,545.00
2023-04-15T06:06:14.406Z,546.00
2023-04-15T06:06:44.383Z,548.00
2023-04-15T06:07:45.577Z,550.00
2023-04-15T06:08:14.566Z,550.00
2023-04-15T06:08:44.656Z,551.00
2023-04-15T06:09:14.745Z,552.00
2023-04-15T06:09:44.843Z,551.00
2023-04-15T06:10:14.922Z,552.00
2023-04-15T06:10:45.004Z,548.00
2023-04-15T06:11:15.088Z,549.00
2023-04-15T06:11:45.168Z,549.00
2023-04-15T06:12:15.248Z,547.00
2023-04-15T06:12:45.358Z,547.00
2023-04-15T06:13:15.478Z,551.00
2023-04-15T06:13:45.442Z,545.00
2023-04-15T06:14:15.513Z,546.00
2023-04-15T06:14:45.541Z,552.00
2023-04-15T06:15:15.629Z,546.00
2023-04-15T06:15:45.717Z,542.00
2023-04-15T06:16:15.861Z,546.00
2023-04-15T06:16:45.827Z,545.00
2023-04-15T06:17:15.911Z,548.00
2023-04-15T06:17:46.028Z,551.00
2023-04-15T06:18:16.015Z,547.00
2023-04-15T06:18:46.007Z,548.00
2023-04-15T06:19:16.028Z,548.00
2023-04-15T06:19:46.048Z,550.00
2023-04-15T06:20:16.051Z,549.00
2023-04-15T06:20:46.068Z,550.00
2023-04-15T06:21:16.071Z,549.00
2023-04-15T06:21:46.076Z,550.00
2023-04-15T06:22:16.100Z,548.00
2023-04-15T06:22:46.134Z,550.00
2023-04-15T06:23:16.152Z,545.00
2023-04-15T06:23:46.176Z,547.00